Liscombe, United Kingdom
Current Conditions -  °F | °C
As of 7:50 AM on Thursday 27 Nov 2014 (Local Time) from EGDX Reporting Station
Moderate Fog Moderate Fog  
Wind Chill:   Ceiling: 100
Heat Index:   Visibility: 0.15mi
Dew Point:   Wind: 5mph
Humidity: 100%   Direction: 50°NE
Pressure: 29.59"   Gusts: NA
Location:  51.08°N, 3.6°W
Report Text: EGDX 270750Z AUTO 05004KT 0250 FG BKN001/// SCT026/// 04/04 Q1002
Loading
Personal Weather Stations






























Interactive Weather Map New forecast layout! Learn more

10-Day Weather Forecast

Advertisements
Track Severe Weather on mobile